Time;durP1;ratioP1;P1;durP2;ratioP2;P2;SDS_P1;SDS_P2;PMS_P1;PMS_P2;Temp;Humidity;BMP_temperature;BMP_pressure;BME280_temperature;BME280_humidity;BME280_pressure;Samples;Min_cycle;Max_cycle;Signal;HPM_P1;HPM_P2
2022/05/20 00:01:29;;;;;;;5.43;1.53;;;18.30;99.90;;;;;;8323969;28;20187;-78
2022/05/20 00:05:30;;;;;;;2.27;1.70;;;18.50;99.90;;;;;;8320276;28;20189;-78
2022/05/20 00:09:31;;;;;;;2.20;1.63;;;18.80;99.90;;;;;;8328059;28;20206;-78
2022/05/20 00:13:32;;;;;;;2.53;1.87;;;18.90;99.90;;;;;;8324324;28;20178;-79
2022/05/20 00:17:33;;;;;;;3.73;1.77;;;19.00;99.90;;;;;;8322023;28;20186;-78
2022/05/20 00:21:34;;;;;;;2.43;1.50;;;19.10;99.90;;;;;;8326172;28;20197;-78
2022/05/20 00:25:48;;;;;;;4.40;1.67;;;19.20;99.90;;;;;;8320688;28;20209;-78
2022/05/20 00:29:48;;;;;;;4.03;1.83;;;19.30;99.90;;;;;;8326831;28;20221;-77
2022/05/20 00:33:50;;;;;;;3.23;1.77;;;19.50;99.90;;;;;;8326423;28;20192;-77
2022/05/20 00:37:51;;;;;;;2.90;1.77;;;19.60;99.90;;;;;;8330194;28;20201;-78
2022/05/20 00:41:52;;;;;;;3.03;1.40;;;19.70;99.90;;;;;;8346054;28;20499;-78
2022/05/20 00:45:59;;;;;;;5.13;1.60;;;19.80;99.90;;;;;;8331378;28;20186;-78
2022/05/20 00:50:04;;;;;;;4.10;1.67;;;19.90;99.90;;;;;;8324490;28;20217;-78
2022/05/20 00:54:12;;;;;;;2.10;1.90;;;20.10;99.90;;;;;;8339743;28;20179;-79
2022/05/20 00:58:17;;;;;;;2.60;1.47;;;20.20;99.90;;;;;;8334846;28;20193;-79
2022/05/20 01:02:22;;;;;;;5.47;1.43;;;20.40;99.90;;;;;;8325261;28;20182;-78
2022/05/20 01:06:24;;;;;;;5.63;2.10;;;20.40;99.90;;;;;;8333365;28;20186;-78
2022/05/20 01:10:24;;;;;;;2.53;1.73;;;20.40;99.90;;;;;;8345026;28;20216;-79
2022/05/20 01:14:26;;;;;;;3.87;1.70;;;20.50;99.90;;;;;;8331662;28;20186;-78
2022/05/20 01:18:27;;;;;;;4.03;1.77;;;20.50;99.90;;;;;;8322311;28;20193;-78
2022/05/20 01:22:39;;;;;;;2.60;1.40;;;20.50;99.90;;;;;;8319007;28;20201;-78
2022/05/20 01:26:40;;;;;;;4.53;1.80;;;20.60;99.90;;;;;;8316556;28;20190;-78
2022/05/20 01:30:48;;;;;;;6.63;2.07;;;20.60;99.90;;;;;;8332453;28;20206;-77
2022/05/20 01:34:49;;;;;;;5.47;1.70;;;20.60;99.90;;;;;;8323873;28;20186;-78
2022/05/20 01:38:52;;;;;;;3.37;1.60;;;20.60;99.90;;;;;;8331270;28;20280;-77
2022/05/20 01:43:17;;;;;;;6.27;2.27;;;20.70;99.90;;;;;;8326516;28;20205;-77
2022/05/20 01:47:49;;;;;;;3.07;1.80;;;20.70;99.90;;;;;;8322095;28;20202;-78
2022/05/20 01:52:02;;;;;;;3.57;1.60;;;20.60;99.90;;;;;;8326175;28;20193;-78
2022/05/20 01:56:08;;;;;;;3.37;1.80;;;20.60;99.90;;;;;;8323176;28;20209;-78
2022/05/20 02:00:17;;;;;;;5.57;2.00;;;20.50;99.90;;;;;;8324651;28;20197;-78
2022/05/20 02:04:28;;;;;;;2.53;1.70;;;20.50;99.90;;;;;;8318953;28;20189;-77
2022/05/20 02:08:41;;;;;;;3.10;1.77;;;20.50;99.90;;;;;;8309437;28;20218;-78
2022/05/20 02:12:49;;;;;;;2.00;1.80;;;20.40;99.90;;;;;;8322562;28;20213;-78
2022/05/20 02:17:17;;;;;;;2.20;1.80;;;20.20;99.90;;;;;;8337041;28;20202;-78
2022/05/20 02:21:22;;;;;;;3.27;2.17;;;20.20;99.90;;;;;;8332483;28;20245;-78
2022/05/20 02:25:30;;;;;;;3.63;1.63;;;20.10;99.90;;;;;;8307389;28;20197;-79
2022/05/20 02:29:47;;;;;;;2.07;1.60;;;20.00;99.90;;;;;;8327803;28;20225;-77
2022/05/20 02:33:48;;;;;;;3.40;1.70;;;20.00;99.90;;;;;;8320676;28;20189;-78
2022/05/20 02:37:49;;;;;;;2.27;1.40;;;20.00;99.90;;;;;;8326535;28;20187;-78
2022/05/20 02:41:50;;;;;;;3.17;1.53;;;19.90;99.90;;;;;;8345391;28;20214;-78
2022/05/20 02:45:52;;;;;;;3.87;2.00;;;19.80;99.90;;;;;;8318075;28;20504;-79
2022/05/20 02:49:53;;;;;;;3.10;1.50;;;19.70;99.90;;;;;;8319726;28;20214;-79
2022/05/20 02:53:54;;;;;;;6.13;2.00;;;19.50;99.90;;;;;;8322640;28;21153;-79
2022/05/20 02:57:54;;;;;;;3.73;1.83;;;19.40;99.90;;;;;;8325499;28;20196;-79
2022/05/20 03:06:14;;;;;;;3.30;1.80;;;19.30;99.90;;;;;;8341414;28;20308;-79
2022/05/20 03:10:15;;;;;;;4.37;1.70;;;19.10;99.90;;;;;;8320055;28;20230;-79
2022/05/20 03:14:18;;;;;;;2.53;1.63;;;19.00;99.90;;;;;;8342447;28;20182;-79
2022/05/20 03:18:19;;;;;;;3.00;1.87;;;18.90;99.90;;;;;;8330469;28;20196;-78
2022/05/20 03:22:20;;;;;;;3.93;1.77;;;18.90;99.90;;;;;;8324005;28;20189;-76
2022/05/20 03:26:21;;;;;;;5.37;1.90;;;18.90;1.00;;;;;;8323740;28;20471;-75
2022/05/20 03:30:22;;;;;;;3.17;1.70;;;18.90;1.00;;;;;;8323309;28;20313;-78
2022/05/20 03:34:24;;;;;;;4.53;1.90;;;18.80;1.00;;;;;;8337857;28;20190;-75
2022/05/20 03:38:25;;;;;;;6.40;1.97;;;18.80;1.00;;;;;;8334469;28;20197;-75
2022/05/20 03:42:26;;;;;;;4.57;1.73;;;18.80;1.00;;;;;;8338396;28;20201;-76
2022/05/20 03:46:28;;;;;;;4.97;1.77;;;18.90;1.00;;;;;;8344374;28;20213;-79
2022/05/20 03:50:29;;;;;;;4.87;1.90;;;18.90;1.00;;;;;;8342504;28;20218;-75
2022/05/20 03:54:33;;;;;;;3.93;1.87;;;19.00;1.00;;;;;;8329132;28;20220;-77
2022/05/20 03:58:34;;;;;;;5.13;1.97;;;19.00;1.00;;;;;;8351791;28;20185;-75
2022/05/20 04:02:34;;;;;;;3.00;1.93;;;19.20;1.00;;;;;;8343373;28;20272;-76
2022/05/20 04:06:37;;;;;;;3.17;1.90;;;19.50;1.00;;;;;;8325212;28;20236;-75
2022/05/20 04:10:38;;;;;;;2.97;1.97;;;19.80;1.00;;;;;;8346405;28;20206;-75
2022/05/20 04:14:39;;;;;;;3.30;1.70;;;20.20;1.00;;;;;;8335636;28;20186;-76
2022/05/20 04:18:43;;;;;;;2.67;1.80;;;20.20;1.00;;;;;;8329505;28;20190;-77
2022/05/20 04:22:45;;;;;;;3.33;1.70;;;20.20;1.00;;;;;;8330742;28;20196;-75
2022/05/20 04:26:46;;;;;;;7.20;1.70;;;20.10;71.90;;;;;;8347143;28;20196;-77
2022/05/20 04:30:49;;;;;;;3.63;1.87;;;19.90;99.90;;;;;;8339873;28;20253;-77
2022/05/20 04:34:50;;;;;;;2.23;2.03;;;19.80;99.90;;;;;;8335006;28;20185;-75
2022/05/20 04:38:50;;;;;;;4.30;1.67;;;19.60;99.90;;;;;;8328849;28;20221;-79
2022/05/20 04:47:22;;;;;;;1.73;1.63;;;20.60;99.90;;;;;;8341752;28;20272;-75
2022/05/20 04:51:23;;;;;;;6.17;1.70;;;21.00;1.00;;;;;;8332717;28;20183;-77
2022/05/20 04:55:24;;;;;;;2.17;1.67;;;21.20;1.00;;;;;;8344406;28;20216;-75
2022/05/20 04:59:24;;;;;;;3.87;1.70;;;21.50;1.00;;;;;;8329465;28;20186;-74
2022/05/20 05:03:25;;;;;;;1.67;1.40;;;21.70;1.00;;;;;;8343824;28;20222;-79
2022/05/20 05:07:26;;;;;;;3.87;1.90;;;21.30;11.10;;;;;;8324338;28;20210;-75
2022/05/20 05:11:27;;;;;;;4.40;1.63;;;20.60;99.90;;;;;;8345225;28;20185;-75
2022/05/20 05:15:28;;;;;;;2.40;1.80;;;20.40;99.90;;;;;;8322171;28;20191;-77
2022/05/20 05:19:29;;;;;;;3.10;2.10;;;20.40;99.90;;;;;;8318943;28;20192;-75
2022/05/20 05:23:31;;;;;;;4.17;1.87;;;20.40;99.90;;;;;;8323240;28;20507;-78
2022/05/20 05:27:32;;;;;;;2.80;2.10;;;20.30;1.00;;;;;;8329181;28;20213;-75
2022/05/20 05:31:33;;;;;;;1.93;1.70;;;20.30;1.00;;;;;;8344793;28;20189;-79
2022/05/20 05:35:34;;;;;;;2.90;1.90;;;20.30;1.00;;;;;;8325996;28;20298;-75
2022/05/20 05:39:35;;;;;;;3.47;2.00;;;20.30;1.00;;;;;;8353794;28;20262;-77
2022/05/20 05:43:36;;;;;;;4.17;2.00;;;20.30;1.00;;;;;;8330705;28;20281;-76
2022/05/20 05:47:37;;;;;;;2.37;2.00;;;20.30;1.00;;;;;;8320988;28;20309;-75
2022/05/20 05:51:38;;;;;;;4.50;2.47;;;20.30;1.00;;;;;;8329695;28;20370;-77
2022/05/20 05:55:41;;;;;;;4.10;2.40;;;20.20;1.00;;;;;;8339757;28;20185;-79
2022/05/20 05:59:42;;;;;;;4.10;2.10;;;20.20;99.90;;;;;;8328547;28;20200;-74
2022/05/20 06:03:43;;;;;;;3.17;2.00;;;20.40;26.10;;;;;;8345572;28;20198;-79
2022/05/20 06:07:45;;;;;;;2.93;1.93;;;20.60;1.00;;;;;;8327951;28;20220;-75
2022/05/20 06:11:45;;;;;;;5.07;2.10;;;20.70;1.00;;;;;;8342323;28;20183;-78
2022/05/20 06:15:46;;;;;;;5.17;2.33;;;20.70;1.00;;;;;;8322492;28;20194;-76
2022/05/20 06:19:47;;;;;;;3.63;2.07;;;20.70;1.00;;;;;;8319072;28;20264;-75
2022/05/20 06:23:48;;;;;;;2.37;1.80;;;21.00;99.90;;;;;;8331619;28;20194;-78
2022/05/20 06:27:49;;;;;;;4.37;2.07;;;21.00;1.00;;;;;;8329322;28;20333;-77
2022/05/20 06:31:50;;;;;;;1.83;1.70;;;21.20;99.90;;;;;;8343849;28;20197;-75
2022/05/20 06:40:15;;;;;;;2.57;1.80;;;21.30;99.90;;;;;;8342185;28;20217;-79
2022/05/20 06:44:16;;;;;;;3.23;1.93;;;21.40;99.90;;;;;;8325839;28;20193;-78
2022/05/20 06:48:17;;;;;;;4.33;2.30;;;21.50;99.90;;;;;;8315091;28;20221;-78
2022/05/20 06:52:18;;;;;;;2.87;1.70;;;21.40;99.90;;;;;;8319551;28;20213;-79
2022/05/20 06:56:21;;;;;;;3.53;2.10;;;21.60;99.90;;;;;;8321176;28;20190;-77
2022/05/20 07:00:22;;;;;;;8.80;2.77;;;21.70;99.90;;;;;;8327056;28;20209;-77
2022/05/20 07:04:23;;;;;;;1.83;1.70;;;21.90;99.90;;;;;;8337358;28;20197;-76
2022/05/20 07:08:24;;;;;;;2.50;1.60;;;21.90;99.90;;;;;;8328020;28;20213;-78
2022/05/20 07:12:25;;;;;;;3.50;1.63;;;21.80;99.90;;;;;;8321691;28;20201;-78
2022/05/20 07:16:29;;;;;;;5.33;1.57;;;21.90;99.90;;;;;;8313143;28;20262;-76
2022/05/20 07:20:30;;;;;;;2.30;1.63;;;22.10;99.90;;;;;;8334802;28;20297;-74
2022/05/20 07:24:30;;;;;;;3.67;2.30;;;22.40;55.60;;;;;;8341474;28;20222;-74
2022/05/20 07:28:33;;;;;;;2.13;1.90;;;22.50;10.10;;;;;;8321475;28;20218;-75
2022/05/20 07:32:34;;;;;;;2.50;1.87;;;22.20;33.00;;;;;;8319482;28;20182;-76
2022/05/20 07:36:35;;;;;;;2.83;1.67;;;22.30;81.70;;;;;;8323879;28;20188;-76
2022/05/20 07:40:38;;;;;;;2.03;1.70;;;22.30;1.00;;;;;;8331678;28;20242;-75
2022/05/20 07:44:41;;;;;;;4.17;1.80;;;22.40;46.20;;;;;;8331298;28;20201;-77
2022/05/20 07:48:41;;;;;;;2.70;1.73;;;22.20;1.00;;;;;;8333265;28;20441;-78
2022/05/20 07:57:15;;;;;;;4.47;1.70;;;22.80;1.00;;;;;;8340583;28;20193;-73
2022/05/20 08:01:19;;;;;;;2.53;1.53;;;22.80;1.00;;;;;;8341704;28;20178;-75
2022/05/20 08:05:21;;;;;;;4.47;1.50;;;23.00;1.00;;;;;;8329363;28;20182;-75
2022/05/20 08:09:22;;;;;;;2.30;1.43;;;23.00;1.00;;;;;;8352678;28;20210;-75
2022/05/20 08:13:24;;;;;;;1.97;1.33;;;23.30;1.00;;;;;;8325402;28;20190;-77
2022/05/20 08:17:25;;;;;;;4.50;1.60;;;23.60;99.90;;;;;;8328714;28;20272;-77
2022/05/20 08:21:26;;;;;;;2.10;1.60;;;23.70;99.90;;;;;;8321652;28;20197;-75
2022/05/20 08:25:28;;;;;;;1.80;1.30;;;23.10;99.90;;;;;;8319981;28;20182;-77
2022/05/20 08:29:33;;;;;;;1.50;1.33;;;23.30;1.00;;;;;;8327146;28;20218;-77
2022/05/20 08:33:34;;;;;;;5.53;1.80;;;23.30;99.90;;;;;;8325245;28;20183;-74
2022/05/20 08:37:38;;;;;;;3.73;1.37;;;23.40;99.90;;;;;;8342990;28;20201;-76
2022/05/20 08:41:49;;;;;;;2.27;1.43;;;23.50;99.90;;;;;;8340019;28;20293;-75
2022/05/20 08:45:50;;;;;;;1.67;1.33;;;23.70;99.90;;;;;;8326332;28;20190;-75
2022/05/20 08:49:53;;;;;;;9.63;1.40;;;23.80;99.90;;;;;;8322722;28;20218;-77
2022/05/20 08:53:55;;;;;;;1.60;1.33;;;23.90;99.90;;;;;;8325325;28;20178;-77
2022/05/20 08:57:58;;;;;;;5.30;1.70;;;24.50;99.90;;;;;;8315935;28;20181;-76
2022/05/20 09:01:59;;;;;;;2.23;1.30;;;24.30;99.90;;;;;;8334207;28;20189;-79
2022/05/20 09:06:13;;;;;;;4.67;1.60;;;24.40;99.90;;;;;;8346977;28;20183;-75
2022/05/20 09:10:27;;;;;;;3.70;1.40;;;24.40;99.90;;;;;;8330628;28;20333;-75
2022/05/20 09:19:09;;;;;;;1.60;1.20;;;24.70;99.90;;;;;;8341397;28;20267;-75
2022/05/20 09:23:12;;;;;;;2.57;1.40;;;25.00;99.90;;;;;;8329802;28;20251;-77
2022/05/20 09:27:18;;;;;;;4.40;1.50;;;25.10;99.90;;;;;;8319029;28;20229;-78
2022/05/20 09:31:52;;;;;;;1.50;1.37;;;25.60;99.90;;;;;;8343990;28;20197;-81
2022/05/20 09:35:57;;;;;;;4.23;1.57;;;25.80;99.90;;;;;;8321248;28;20175;-74
2022/05/20 09:40:14;;;;;;;3.13;1.52;;;25.80;99.90;;;;;;8327875;28;20213;-75
2022/05/20 09:44:19;;;;;;;3.60;1.30;;;25.60;99.90;;;;;;8324135;28;20573;-77
2022/05/20 09:48:33;;;;;;;4.40;1.60;;;26.00;99.90;;;;;;8328030;28;20233;-79
2022/05/20 09:52:55;;;;;;;2.25;1.73;;;26.10;99.90;;;;;;8320000;28;20193;-76
2022/05/20 09:57:13;;;;;;;1.92;1.40;;;26.30;99.90;;;;;;8329096;28;20228;-76
2022/05/20 10:01:19;;;;;;;3.65;1.80;;;26.00;99.90;;;;;;8335673;28;20470;-78
2022/05/20 10:05:34;;;;;;;1.63;1.53;;;26.40;90.50;;;;;;8326070;28;20183;-76
2022/05/20 10:09:52;;;;;;;4.50;1.80;;;25.20;99.90;;;;;;8334135;28;20221;-76
2022/05/20 10:14:00;;;;;;;4.20;1.70;;;25.40;99.90;;;;;;8339127;28;20217;-79
2022/05/20 10:18:24;;;;;;;2.33;1.83;;;25.50;99.90;;;;;;8327045;28;20248;-76
2022/05/20 10:22:43;;;;;;;3.30;1.83;;;25.30;99.90;;;;;;8309244;28;20229;-76
2022/05/20 10:26:53;;;;;;;3.47;1.93;;;25.20;99.90;;;;;;8322274;28;20185;-77
2022/05/20 10:35:24;;;;;;;2.63;1.85;;;27.00;93.00;;;;;;8336053;28;20219;-75
2022/05/20 10:39:43;;;;;;;3.08;2.08;;;26.90;61.50;;;;;;8332985;28;20213;-76
2022/05/20 10:48:34;;;;;;;3.42;1.70;;;26.80;99.90;;;;;;8338930;28;20523;-77
2022/05/20 10:52:47;;;;;;;2.35;1.60;;;27.30;51.00;;;;;;8321390;28;20189;-77
2022/05/20 10:57:15;;;;;;;2.45;1.55;;;27.20;54.20;;;;;;8320643;28;20194;-78
2022/05/20 11:01:37;;;;;;;2.75;1.70;;;27.20;23.30;;;;;;8325091;28;20185;-76
2022/05/20 11:06:03;;;;;;;2.70;1.90;;;26.80;50.70;;;;;;8325504;28;20178;-78
2022/05/20 11:10:22;;;;;;;3.00;1.60;;;26.90;47.30;;;;;;8339914;28;20214;-77
2022/05/20 11:14:38;;;;;;;2.47;1.52;;;27.20;34.70;;;;;;8337250;28;20178;-79
2022/05/20 11:19:01;;;;;;;2.58;1.45;;;27.90;12.10;;;;;;8330523;28;20209;-76
2022/05/20 11:23:26;;;;;;;3.65;1.50;;;28.40;1.00;;;;;;8331317;28;20180;-76
2022/05/20 11:28:03;;;;;;;3.42;1.50;;;28.00;1.00;;;;;;8347194;28;20201;-77
2022/05/20 11:32:12;;;;;;;1.88;1.48;;;28.20;1.00;;;;;;8333533;28;20185;-79
2022/05/20 11:36:32;;;;;;;1.77;1.50;;;28.10;1.00;;;;;;8318995;28;20193;-80
2022/05/20 11:40:54;;;;;;;2.17;1.60;;;27.60;4.70;;;;;;8330542;28;20232;-75
2022/05/20 11:45:15;;;;;;;2.63;1.70;;;27.40;12.40;;;;;;8339513;28;20182;-79
2022/05/20 11:49:31;;;;;;;2.55;1.80;;;28.00;5.90;;;;;;8317475;28;20204;-79
2022/05/20 11:53:57;;;;;;;1.65;1.50;;;28.30;1.00;;;;;;8317797;28;20189;-78
2022/05/20 11:58:14;;;;;;;2.58;1.90;;;28.30;1.00;;;;;;8328354;28;20189;-77
2022/05/20 12:02:20;;;;;;;3.03;1.52;;;28.30;1.00;;;;;;8319064;28;20569;-80
2022/05/20 12:06:23;;;;;;;3.88;1.90;;;28.50;1.00;;;;;;8330361;28;20193;-77
2022/05/20 12:10:47;;;;;;;4.82;1.90;;;28.70;1.00;;;;;;8324190;28;20206;-76
2022/05/20 12:15:05;;;;;;;1.67;1.45;;;27.70;1.50;;;;;;8321662;28;20332;-79
2022/05/20 12:28:28;;;;;;;1.70;1.60;;;28.30;1.00;;;;;;8336339;28;20305;-78
2022/05/20 12:32:35;;;;;;;4.35;1.90;;;28.40;1.00;;;;;;8349237;28;20220;-75
2022/05/20 12:36:39;;;;;;;2.63;1.70;;;28.30;1.00;;;;;;8346312;28;20186;-79
2022/05/20 12:40:40;;;;;;;3.03;1.52;;;28.20;6.50;;;;;;8328557;28;20337;-79
2022/05/20 12:44:40;;;;;;;3.92;2.00;;;28.30;6.20;;;;;;8342474;28;20200;-79
2022/05/20 12:48:41;;;;;;;4.32;1.50;;;28.10;16.10;;;;;;8323834;28;20281;-75
2022/05/20 12:52:49;;;;;;;2.55;1.73;;;28.30;5.40;;;;;;8328108;28;20278;-76
2022/05/20 12:57:06;;;;;;;4.82;1.67;;;28.20;1.50;;;;;;8326744;28;20177;-79
2022/05/20 13:01:14;;;;;;;2.75;1.60;;;28.20;10.70;;;;;;8324707;28;20213;-77
2022/05/20 13:05:21;;;;;;;2.22;1.80;;;28.30;1.00;;;;;;8330261;28;20209;-76
2022/05/20 13:09:37;;;;;;;2.50;1.60;;;28.30;1.00;;;;;;8325415;28;20213;-78
2022/05/20 13:13:39;;;;;;;3.03;1.60;;;28.40;7.00;;;;;;8328418;28;20191;-79
2022/05/20 13:17:40;;;;;;;2.70;1.63;;;28.40;1.00;;;;;;8329874;28;20197;-78
2022/05/20 13:21:53;;;;;;;1.80;1.70;;;28.60;1.60;;;;;;8329533;28;20268;-79
2022/05/20 13:25:54;;;;;;;1.45;1.35;;;28.60;1.00;;;;;;8323418;28;20221;-80
2022/05/20 13:30:11;;;;;;;4.60;1.58;;;28.50;1.00;;;;;;8328512;28;20229;-79
2022/05/20 13:34:14;;;;;;;2.08;1.83;;;28.50;1.00;;;;;;8327680;28;20175;-76
2022/05/20 13:38:15;;;;;;;2.35;1.50;;;28.30;8.30;;;;;;8332208;28;20193;-79
2022/05/20 13:42:17;;;;;;;2.03;1.30;;;28.30;1.00;;;;;;8323966;28;20206;-77
2022/05/20 13:50:38;;;;;;;2.30;1.67;;;28.70;1.00;;;;;;8337870;28;20212;-77
2022/05/20 13:54:56;;;;;;;1.63;1.30;;;28.90;1.00;;;;;;8321094;28;20199;-76
2022/05/20 13:59:03;;;;;;;2.63;1.50;;;28.90;2.00;;;;;;8328538;28;20309;-77
2022/05/20 14:03:16;;;;;;;2.05;1.75;;;29.10;1.00;;;;;;8324695;28;20190;-79
2022/05/20 14:07:34;;;;;;;2.10;1.58;;;29.10;1.00;;;;;;8321126;28;20305;-76
2022/05/20 14:11:45;;;;;;;1.50;1.30;;;29.00;1.00;;;;;;8339159;28;20247;-80
2022/05/20 14:15:49;;;;;;;2.28;1.70;;;29.00;1.00;;;;;;8331011;28;20193;-79
2022/05/20 14:19:51;;;;;;;3.15;1.48;;;29.10;1.00;;;;;;8330151;28;20193;-78
2022/05/20 14:24:14;;;;;;;3.15;1.77;;;29.10;1.00;;;;;;8313570;28;20182;-80
2022/05/20 14:28:21;;;;;;;1.92;1.55;;;29.00;1.00;;;;;;8322957;28;20241;-81
2022/05/20 14:32:22;;;;;;;2.00;1.90;;;28.80;1.00;;;;;;8329967;28;20241;-79
2022/05/20 14:36:24;;;;;;;2.20;1.67;;;28.40;1.00;;;;;;8331090;28;20187;-79
2022/05/20 14:40:29;;;;;;;2.17;1.95;;;28.50;1.00;;;;;;8340122;28;20260;-81
2022/05/20 14:44:30;;;;;;;3.83;2.00;;;28.80;1.00;;;;;;8324014;28;20194;-77
2022/05/20 14:48:44;;;;;;;2.08;1.88;;;29.00;1.00;;;;;;8325052;28;20210;-77
2022/05/20 14:52:50;;;;;;;4.40;1.95;;;29.10;1.00;;;;;;8326682;28;20187;-81
2022/05/20 14:56:50;;;;;;;2.15;1.80;;;28.80;1.00;;;;;;8326137;28;20189;-76
2022/05/20 15:01:13;;;;;;;4.18;1.85;;;29.00;1.00;;;;;;8325440;28;20178;-77
2022/05/20 15:05:14;;;;;;;2.35;2.00;;;28.60;1.00;;;;;;8330303;28;20269;-78
2022/05/20 15:09:30;;;;;;;1.83;1.45;;;28.00;1.00;;;;;;8329273;28;20210;-79
2022/05/20 15:13:32;;;;;;;3.10;1.77;;;27.90;5.70;;;;;;8328178;28;20182;-77
2022/05/20 15:17:38;;;;;;;5.65;2.03;;;28.30;2.60;;;;;;8337698;28;20178;-79
2022/05/20 15:21:40;;;;;;;2.53;1.60;;;28.70;1.00;;;;;;8321420;28;20179;-81
2022/05/20 15:25:41;;;;;;;2.22;1.70;;;28.40;1.00;;;;;;8327590;28;20213;-81
2022/05/20 15:29:41;;;;;;;4.53;2.10;;;27.80;1.00;;;;;;8323684;28;20214;-81
2022/05/20 15:38:02;;;;;;;2.45;1.60;;;27.80;9.30;;;;;;8340151;28;20205;-81
2022/05/20 15:42:04;;;;;;;1.88;1.70;;;27.70;22.50;;;;;;8323540;28;20296;-79
2022/05/20 15:46:05;;;;;;;2.45;1.38;;;28.10;14.50;;;;;;8320716;28;20187;-79
2022/05/20 15:50:08;;;;;;;3.65;1.88;;;28.60;4.50;;;;;;8332031;28;20209;-77
2022/05/20 15:54:11;;;;;;;3.20;1.95;;;28.80;1.00;;;;;;8325615;28;20187;-81
2022/05/20 15:58:19;;;;;;;3.72;1.80;;;28.90;1.00;;;;;;8326421;28;20183;-79
2022/05/20 16:02:22;;;;;;;1.48;1.38;;;28.70;1.00;;;;;;8325609;28;20241;-79
2022/05/20 16:06:26;;;;;;;2.65;1.70;;;28.70;1.00;;;;;;8335964;28;20182;-80
2022/05/20 16:10:30;;;;;;;2.38;1.60;;;28.70;6.50;;;;;;8319129;28;20206;-79
2022/05/20 16:14:31;;;;;;;3.15;2.60;;;28.80;7.90;;;;;;8327588;28;20213;-77
2022/05/20 16:18:32;;;;;;;2.42;1.70;;;29.00;10.10;;;;;;8329059;28;20197;-79
2022/05/20 16:22:35;;;;;;;2.72;1.90;;;29.20;1.00;;;;;;8325203;28;20186;-77
2022/05/20 16:26:39;;;;;;;1.55;1.42;;;29.10;1.00;;;;;;8327503;28;20295;-79
2022/05/20 16:30:40;;;;;;;1.55;1.45;;;29.00;1.00;;;;;;8336778;28;20291;-78
2022/05/20 16:34:41;;;;;;;4.32;2.20;;;29.00;1.40;;;;;;8330506;28;20182;-81
2022/05/20 16:38:42;;;;;;;2.08;1.80;;;29.20;1.00;;;;;;8326325;28;20231;-76
2022/05/20 16:42:43;;;;;;;4.68;1.98;;;29.60;1.00;;;;;;8350864;28;20190;-77
2022/05/20 16:46:44;;;;;;;2.50;1.92;;;29.90;1.00;;;;;;8352184;28;20208;-81
2022/05/20 16:50:46;;;;;;;3.28;1.65;;;29.70;1.00;;;;;;8328768;28;20213;-81
2022/05/20 16:54:50;;;;;;;1.90;1.70;;;29.60;1.00;;;;;;8326439;28;20209;-75
2022/05/20 17:03:10;;;;;;;3.55;2.67;;;29.40;1.00;;;;;;8349797;28;20287;-76
2022/05/20 17:07:11;;;;;;;2.67;1.92;;;29.10;1.00;;;;;;8327614;28;20182;-76
2022/05/20 17:11:12;;;;;;;3.40;2.80;;;28.90;1.00;;;;;;8331410;28;20245;-79
2022/05/20 17:15:13;;;;;;;5.30;3.47;;;28.90;4.80;;;;;;8332211;28;20186;-79
2022/05/20 17:19:15;;;;;;;4.38;2.28;;;28.80;12.20;;;;;;8331994;28;20216;-80
2022/05/20 17:27:37;;;;;;;2.92;2.55;;;28.30;7.70;;;;;;8339963;28;20217;-77
2022/05/20 17:31:37;;;;;;;3.78;3.20;;;28.10;23.60;;;;;;8324581;28;20197;-76
2022/05/20 17:35:38;;;;;;;2.65;2.38;;;28.00;45.50;;;;;;8330913;28;20239;-79
2022/05/20 17:39:40;;;;;;;3.15;2.25;;;27.80;81.70;;;;;;8327952;28;20210;-80
2022/05/20 17:43:41;;;;;;;2.58;2.38;;;27.80;91.40;;;;;;8328234;28;20209;-76
2022/05/20 17:47:42;;;;;;;2.72;2.22;;;27.90;91.60;;;;;;8324298;28;20205;-81
2022/05/20 17:51:43;;;;;;;3.85;2.30;;;28.10;86.90;;;;;;8324086;28;20277;-82
2022/05/20 17:55:44;;;;;;;2.60;2.40;;;28.00;77.30;;;;;;8325047;28;20253;-78
2022/05/20 17:59:45;;;;;;;2.20;2.00;;;27.70;99.90;;;;;;8324802;28;20186;-75
2022/05/20 18:03:47;;;;;;;8.27;2.47;;;27.40;99.90;;;;;;8324691;28;20218;-79
2022/05/20 18:07:48;;;;;;;2.80;2.13;;;27.10;99.90;;;;;;8326262;28;20214;-79
2022/05/20 18:12:12;;;;;;;5.22;2.50;;;26.80;99.90;;;;;;8345338;28;20186;-76
2022/05/20 18:16:15;;;;;;;4.63;2.55;;;26.40;99.90;;;;;;8347898;28;20197;-82
2022/05/20 18:20:16;;;;;;;4.65;2.70;;;26.00;99.90;;;;;;8321713;28;20205;-80
2022/05/20 18:24:18;;;;;;;3.78;2.70;;;25.60;99.90;;;;;;8321207;28;20199;-76
2022/05/20 18:28:19;;;;;;;2.83;2.40;;;25.30;1.00;;;;;;8332991;28;20527;-79
2022/05/20 18:32:26;;;;;;;3.10;2.70;;;25.00;1.00;;;;;;8327978;28;20190;-79
2022/05/20 18:40:46;;;;;;;4.80;4.17;;;24.50;1.00;;;;;;8341105;28;20233;-78
2022/05/20 18:44:47;;;;;;;7.60;3.10;;;24.30;6.50;;;;;;8306525;28;20190;-77
2022/05/20 18:48:48;;;;;;;7.23;3.63;;;24.10;99.90;;;;;;8338199;28;20260;-80
2022/05/20 18:52:49;;;;;;;5.17;3.67;;;23.90;99.90;;;;;;8327637;28;20193;-80
2022/05/20 18:56:50;;;;;;;9.77;3.90;;;23.70;99.90;;;;;;8330486;28;20235;-79
2022/05/20 19:00:53;;;;;;;5.27;3.93;;;23.40;99.90;;;;;;8322096;28;20186;-78
2022/05/20 19:04:55;;;;;;;7.57;4.07;;;23.30;99.90;;;;;;8317558;28;20193;-76
2022/05/20 19:08:55;;;;;;;9.20;3.80;;;23.20;99.90;;;;;;8320717;28;20197;-76
2022/05/20 19:12:56;;;;;;;6.43;3.87;;;23.10;99.90;;;;;;8324731;28;20220;-80
2022/05/20 19:16:57;;;;;;;9.57;4.33;;;23.00;99.90;;;;;;8338595;28;20174;-79
2022/05/20 19:20:59;;;;;;;7.80;4.30;;;22.90;1.00;;;;;;8326638;28;20197;-80
2022/05/20 19:25:00;;;;;;;6.77;5.53;;;22.80;1.00;;;;;;8321761;28;20194;-79
2022/05/20 19:29:02;;;;;;;5.17;4.10;;;22.80;1.00;;;;;;8325406;28;20212;-79
2022/05/20 19:33:04;;;;;;;6.10;4.43;;;22.70;1.00;;;;;;8320842;28;20186;-79
2022/05/20 19:37:07;;;;;;;7.37;4.80;;;22.70;1.00;;;;;;8331988;28;20182;-79
2022/05/20 19:41:09;;;;;;;6.17;4.17;;;22.70;1.00;;;;;;8330279;28;20208;-79
2022/05/20 19:45:10;;;;;;;3.87;3.43;;;22.60;97.20;;;;;;8336705;28;20251;-80
2022/05/20 19:49:11;;;;;;;8.53;4.33;;;22.60;99.90;;;;;;8332676;28;20209;-79
2022/05/20 19:53:13;;;;;;;5.37;3.90;;;22.40;1.00;;;;;;8330286;28;20182;-79
2022/05/20 20:01:33;;;;;;;6.53;4.63;;;22.00;1.00;;;;;;8351232;28;20193;-80
2022/05/20 20:05:36;;;;;;;11.90;5.33;;;21.80;99.90;;;;;;8330825;28;20229;-79
2022/05/20 20:09:36;;;;;;;8.33;4.57;;;21.50;1.00;;;;;;8348824;28;20595;-80
2022/05/20 20:13:38;;;;;;;5.07;3.80;;;21.20;99.90;;;;;;8326668;28;20264;-79
2022/05/20 20:17:39;;;;;;;6.10;4.20;;;21.00;99.90;;;;;;8326772;28;20196;-80
2022/05/20 20:26:08;;;;;;;6.50;3.50;;;20.70;1.00;;;;;;8350447;28;20232;-80
2022/05/20 20:30:09;;;;;;;5.77;3.73;;;20.60;1.00;;;;;;8329527;28;20214;-79
2022/05/20 20:34:12;;;;;;;5.10;4.33;;;20.50;99.90;;;;;;8325536;28;20186;-79
2022/05/20 20:38:13;;;;;;;5.10;4.57;;;20.30;99.90;;;;;;8332893;28;20223;-80
2022/05/20 20:42:14;;;;;;;7.60;4.50;;;20.20;99.90;;;;;;8328694;28;20603;-78
2022/05/20 20:46:15;;;;;;;5.47;4.87;;;20.00;1.00;;;;;;8324976;28;20190;-80
2022/05/20 20:50:15;;;;;;;6.17;4.70;;;19.90;2.00;;;;;;8329471;28;20305;-81
2022/05/20 20:54:20;;;;;;;5.60;4.60;;;19.90;1.00;;;;;;8327051;28;20222;-80
2022/05/20 20:58:21;;;;;;;7.50;5.00;;;19.80;1.00;;;;;;8324809;28;20201;-81
2022/05/20 21:02:22;;;;;;;7.20;5.63;;;19.80;99.90;;;;;;8327212;28;20496;-79
2022/05/20 21:06:24;;;;;;;7.07;6.40;;;19.80;99.90;;;;;;8343695;28;20182;-79
2022/05/20 21:10:25;;;;;;;6.63;6.03;;;19.70;1.00;;;;;;8348740;28;20217;-80
2022/05/20 21:14:26;;;;;;;5.10;4.60;;;19.50;99.90;;;;;;8318566;28;20193;-80
2022/05/20 21:18:27;;;;;;;6.40;5.07;;;19.40;99.90;;;;;;8322914;28;20221;-80
2022/05/20 21:22:28;;;;;;;9.33;5.90;;;19.40;99.90;;;;;;8321966;28;20194;-81
2022/05/20 21:26:29;;;;;;;7.23;5.47;;;19.30;99.90;;;;;;8330405;28;20189;-80
2022/05/20 21:30:31;;;;;;;6.30;5.70;;;19.30;99.90;;;;;;8327936;28;20214;-80
2022/05/20 21:34:33;;;;;;;5.93;5.40;;;19.20;99.90;;;;;;8322833;28;20183;-79
2022/05/20 21:38:34;;;;;;;7.17;6.47;;;19.30;99.90;;;;;;8330350;28;20182;-79
2022/05/20 21:42:43;;;;;;;10.50;6.17;;;19.20;99.90;;;;;;8333681;28;20251;-82
2022/05/20 21:46:52;;;;;;;4.23;3.47;;;19.10;99.90;;;;;;8307285;28;20197;-80
2022/05/20 21:50:53;;;;;;;8.10;4.77;;;18.80;99.90;;;;;;8330668;28;20217;-81
2022/05/20 21:54:54;;;;;;;5.57;4.30;;;18.40;99.90;;;;;;8327535;28;20185;-80
2022/05/20 21:58:55;;;;;;;4.13;3.40;;;18.30;99.90;;;;;;8327205;28;20224;-81
2022/05/20 22:11:37;;;;;;;4.00;3.03;;;18.20;99.90;;;;;;8342193;28;20289;-79
2022/05/20 22:15:38;;;;;;;5.07;3.57;;;18.00;99.90;;;;;;8331873;28;20175;-80
2022/05/20 22:19:39;;;;;;;5.23;3.73;;;18.00;99.90;;;;;;8326440;28;20186;-80
2022/05/20 22:23:46;;;;;;;4.37;3.20;;;17.90;99.90;;;;;;8318080;28;20257;-79
2022/05/20 22:27:47;;;;;;;7.17;3.60;;;17.90;99.90;;;;;;8327043;28;20213;-79
2022/05/20 22:31:48;;;;;;;3.87;2.50;;;17.90;99.90;;;;;;8323406;28;20178;-80
2022/05/20 22:35:49;;;;;;;4.57;2.17;;;18.00;99.90;;;;;;8321582;28;20213;-80
2022/05/20 22:39:50;;;;;;;4.50;2.60;;;18.00;99.90;;;;;;8334667;28;20205;-81